sensor_id;sensor_type;location;lat;lon;timestamp;P1;durP1;ratioP1;P2;durP2;ratioP2
52934;SDS011;38802;50.198;19.796;2023-04-08T00:01:50;40.80;;;25.60;;
52934;SDS011;38802;50.198;19.796;2023-04-08T00:04:18;40.50;;;25.60;;
52934;SDS011;38802;50.198;19.796;2023-04-08T00:06:45;36.30;;;25.60;;
52934;SDS011;38802;50.198;19.796;2023-04-08T00:09:12;37.70;;;25.70;;
52934;SDS011;38802;50.198;19.796;2023-04-08T00:11:39;36.50;;;25.50;;
52934;SDS011;38802;50.198;19.796;2023-04-08T00:14:06;36.60;;;24.40;;
52934;SDS011;38802;50.198;19.796;2023-04-08T00:16:32;32.10;;;23.20;;
52934;SDS011;38802;50.198;19.796;2023-04-08T00:18:59;43.00;;;26.10;;
52934;SDS011;38802;50.198;19.796;2023-04-08T00:21:26;38.60;;;27.70;;
52934;SDS011;38802;50.198;19.796;2023-04-08T00:23:53;44.40;;;27.40;;
52934;SDS011;38802;50.198;19.796;2023-04-08T00:26:20;39.90;;;26.00;;
52934;SDS011;38802;50.198;19.796;2023-04-08T00:28:47;43.40;;;28.60;;
52934;SDS011;38802;50.198;19.796;2023-04-08T00:31:14;43.60;;;27.20;;
52934;SDS011;38802;50.198;19.796;2023-04-08T00:33:41;42.60;;;25.30;;
52934;SDS011;38802;50.198;19.796;2023-04-08T00:36:09;43.70;;;29.50;;
52934;SDS011;38802;50.198;19.796;2023-04-08T00:38:36;44.20;;;27.60;;
52934;SDS011;38802;50.198;19.796;2023-04-08T00:41:02;42.70;;;27.80;;
52934;SDS011;38802;50.198;19.796;2023-04-08T00:43:30;37.20;;;25.20;;
52934;SDS011;38802;50.198;19.796;2023-04-08T00:45:56;39.80;;;25.80;;
52934;SDS011;38802;50.198;19.796;2023-04-08T00:48:23;41.10;;;26.70;;
52934;SDS011;38802;50.198;19.796;2023-04-08T00:50:50;37.70;;;25.90;;
52934;SDS011;38802;50.198;19.796;2023-04-08T00:53:17;40.10;;;26.00;;
52934;SDS011;38802;50.198;19.796;2023-04-08T00:55:44;43.60;;;28.30;;
52934;SDS011;38802;50.198;19.796;2023-04-08T00:58:11;38.40;;;24.70;;
52934;SDS011;38802;50.198;19.796;2023-04-08T01:00:42;41.10;;;25.80;;
52934;SDS011;38802;50.198;19.796;2023-04-08T01:03:16;35.80;;;26.50;;
52934;SDS011;38802;50.198;19.796;2023-04-08T01:08:19;38.60;;;25.50;;
52934;SDS011;38802;50.198;19.796;2023-04-08T01:10:47;34.30;;;23.50;;
52934;SDS011;38802;50.198;19.796;2023-04-08T01:13:18;33.00;;;22.40;;
52934;SDS011;38802;50.198;19.796;2023-04-08T01:15:49;30.60;;;21.90;;
52934;SDS011;38802;50.198;19.796;2023-04-08T01:18:15;35.80;;;22.40;;
52934;SDS011;38802;50.198;19.796;2023-04-08T01:20:43;35.20;;;23.40;;
52934;SDS011;38802;50.198;19.796;2023-04-08T01:23:17;30.30;;;23.30;;
52934;SDS011;38802;50.198;19.796;2023-04-08T01:25:53;33.10;;;23.30;;
52934;SDS011;38802;50.198;19.796;2023-04-08T01:28:23;37.20;;;25.80;;
52934;SDS011;38802;50.198;19.796;2023-04-08T01:30:52;29.70;;;23.20;;
52934;SDS011;38802;50.198;19.796;2023-04-08T01:33:21;30.90;;;21.90;;
52934;SDS011;38802;50.198;19.796;2023-04-08T01:35:54;28.60;;;19.80;;
52934;SDS011;38802;50.198;19.796;2023-04-08T01:38:23;28.30;;;21.50;;
52934;SDS011;38802;50.198;19.796;2023-04-08T01:40:52;26.40;;;19.50;;
52934;SDS011;38802;50.198;19.796;2023-04-08T01:43:21;29.80;;;20.80;;
52934;SDS011;38802;50.198;19.796;2023-04-08T01:45:49;33.90;;;23.00;;
52934;SDS011;38802;50.198;19.796;2023-04-08T01:48:19;28.90;;;19.80;;
52934;SDS011;38802;50.198;19.796;2023-04-08T01:50:47;26.50;;;20.00;;
52934;SDS011;38802;50.198;19.796;2023-04-08T01:53:14;26.60;;;19.90;;
52934;SDS011;38802;50.198;19.796;2023-04-08T01:55:41;24.50;;;18.60;;
52934;SDS011;38802;50.198;19.796;2023-04-08T01:58:15;23.30;;;16.90;;
52934;SDS011;38802;50.198;19.796;2023-04-08T02:00:45;20.50;;;16.90;;
52934;SDS011;38802;50.198;19.796;2023-04-08T02:03:13;24.00;;;18.10;;
52934;SDS011;38802;50.198;19.796;2023-04-08T02:05:45;21.30;;;17.10;;
52934;SDS011;38802;50.198;19.796;2023-04-08T02:08:32;25.60;;;18.10;;
52934;SDS011;38802;50.198;19.796;2023-04-08T02:11:03;21.30;;;15.60;;
52934;SDS011;38802;50.198;19.796;2023-04-08T02:13:32;21.80;;;17.90;;
52934;SDS011;38802;50.198;19.796;2023-04-08T02:16:05;21.50;;;16.90;;
52934;SDS011;38802;50.198;19.796;2023-04-08T02:18:45;22.40;;;16.60;;
52934;SDS011;38802;50.198;19.796;2023-04-08T02:21:22;16.70;;;14.90;;
52934;SDS011;38802;50.198;19.796;2023-04-08T02:23:59;20.40;;;15.20;;
52934;SDS011;38802;50.198;19.796;2023-04-08T02:26:32;20.80;;;15.90;;
52934;SDS011;38802;50.198;19.796;2023-04-08T02:29:02;20.10;;;16.40;;
52934;SDS011;38802;50.198;19.796;2023-04-08T02:31:33;15.10;;;13.40;;
52934;SDS011;38802;50.198;19.796;2023-04-08T02:34:02;19.70;;;14.10;;
52934;SDS011;38802;50.198;19.796;2023-04-08T02:36:33;19.60;;;14.70;;
52934;SDS011;38802;50.198;19.796;2023-04-08T02:39:02;15.90;;;14.20;;
52934;SDS011;38802;50.198;19.796;2023-04-08T02:41:30;20.30;;;16.20;;
52934;SDS011;38802;50.198;19.796;2023-04-08T02:43:58;18.30;;;15.30;;
52934;SDS011;38802;50.198;19.796;2023-04-08T02:46:26;17.40;;;15.30;;
52934;SDS011;38802;50.198;19.796;2023-04-08T02:48:54;17.30;;;14.00;;
52934;SDS011;38802;50.198;19.796;2023-04-08T02:51:22;20.70;;;16.70;;
52934;SDS011;38802;50.198;19.796;2023-04-08T02:53:50;18.60;;;15.60;;
52934;SDS011;38802;50.198;19.796;2023-04-08T02:56:18;22.30;;;17.00;;
52934;SDS011;38802;50.198;19.796;2023-04-08T02:58:46;21.10;;;16.00;;
52934;SDS011;38802;50.198;19.796;2023-04-08T03:01:14;21.70;;;16.70;;
52934;SDS011;38802;50.198;19.796;2023-04-08T03:03:43;18.50;;;14.20;;
52934;SDS011;38802;50.198;19.796;2023-04-08T03:06:11;22.00;;;15.70;;
52934;SDS011;38802;50.198;19.796;2023-04-08T03:08:39;18.20;;;11.80;;
52934;SDS011;38802;50.198;19.796;2023-04-08T03:11:07;20.20;;;16.40;;
52934;SDS011;38802;50.198;19.796;2023-04-08T03:13:35;24.20;;;17.30;;
52934;SDS011;38802;50.198;19.796;2023-04-08T03:16:03;17.60;;;14.70;;
52934;SDS011;38802;50.198;19.796;2023-04-08T03:18:32;18.40;;;14.20;;
52934;SDS011;38802;50.198;19.796;2023-04-08T03:21:00;20.80;;;16.50;;
52934;SDS011;38802;50.198;19.796;2023-04-08T03:23:29;22.00;;;15.80;;
52934;SDS011;38802;50.198;19.796;2023-04-08T03:25:59;18.60;;;15.40;;
52934;SDS011;38802;50.198;19.796;2023-04-08T03:28:27;19.00;;;15.40;;
52934;SDS011;38802;50.198;19.796;2023-04-08T03:30:55;18.90;;;15.20;;
52934;SDS011;38802;50.198;19.796;2023-04-08T03:33:23;21.10;;;15.20;;
52934;SDS011;38802;50.198;19.796;2023-04-08T03:35:52;20.00;;;16.80;;
52934;SDS011;38802;50.198;19.796;2023-04-08T03:38:21;21.50;;;16.00;;
52934;SDS011;38802;50.198;19.796;2023-04-08T03:40:49;22.00;;;16.40;;
52934;SDS011;38802;50.198;19.796;2023-04-08T03:43:18;19.40;;;14.60;;
52934;SDS011;38802;50.198;19.796;2023-04-08T03:45:48;20.30;;;15.80;;
52934;SDS011;38802;50.198;19.796;2023-04-08T03:57:42;19.10;;;15.60;;
52934;SDS011;38802;50.198;19.796;2023-04-08T04:00:09;19.70;;;16.10;;
52934;SDS011;38802;50.198;19.796;2023-04-08T04:02:39;18.30;;;15.80;;
52934;SDS011;38802;50.198;19.796;2023-04-08T04:05:06;16.40;;;14.50;;
52934;SDS011;38802;50.198;19.796;2023-04-08T04:07:33;20.10;;;15.50;;
52934;SDS011;38802;50.198;19.796;2023-04-08T04:09:59;17.40;;;15.40;;
52934;SDS011;38802;50.198;19.796;2023-04-08T04:12:26;18.40;;;15.50;;
52934;SDS011;38802;50.198;19.796;2023-04-08T04:14:53;16.20;;;13.60;;
52934;SDS011;38802;50.198;19.796;2023-04-08T04:17:19;15.50;;;13.90;;
52934;SDS011;38802;50.198;19.796;2023-04-08T04:19:46;17.80;;;14.70;;
52934;SDS011;38802;50.198;19.796;2023-04-08T04:22:12;16.70;;;14.80;;
52934;SDS011;38802;50.198;19.796;2023-04-08T04:24:39;18.60;;;15.50;;
52934;SDS011;38802;50.198;19.796;2023-04-08T04:27:05;19.30;;;16.90;;
52934;SDS011;38802;50.198;19.796;2023-04-08T04:29:32;21.30;;;16.30;;
52934;SDS011;38802;50.198;19.796;2023-04-08T04:31:59;23.80;;;15.50;;
52934;SDS011;38802;50.198;19.796;2023-04-08T04:34:26;28.20;;;20.00;;
52934;SDS011;38802;50.198;19.796;2023-04-08T04:36:53;24.80;;;17.80;;
52934;SDS011;38802;50.198;19.796;2023-04-08T04:39:19;26.70;;;19.40;;
52934;SDS011;38802;50.198;19.796;2023-04-08T04:41:46;32.40;;;21.10;;
52934;SDS011;38802;50.198;19.796;2023-04-08T04:44:14;23.50;;;15.40;;
52934;SDS011;38802;50.198;19.796;2023-04-08T04:46:41;27.30;;;19.30;;
52934;SDS011;38802;50.198;19.796;2023-04-08T04:49:07;28.90;;;20.30;;
52934;SDS011;38802;50.198;19.796;2023-04-08T04:51:34;30.50;;;19.60;;
52934;SDS011;38802;50.198;19.796;2023-04-08T04:54:01;32.70;;;22.00;;
52934;SDS011;38802;50.198;19.796;2023-04-08T04:56:27;32.20;;;21.30;;
52934;SDS011;38802;50.198;19.796;2023-04-08T04:58:54;36.20;;;22.30;;
52934;SDS011;38802;50.198;19.796;2023-04-08T05:01:20;34.70;;;22.40;;
52934;SDS011;38802;50.198;19.796;2023-04-08T05:03:47;37.90;;;22.90;;
52934;SDS011;38802;50.198;19.796;2023-04-08T05:06:14;35.20;;;22.50;;
52934;SDS011;38802;50.198;19.796;2023-04-08T05:08:40;36.80;;;21.60;;
52934;SDS011;38802;50.198;19.796;2023-04-08T05:11:10;35.80;;;24.30;;
52934;SDS011;38802;50.198;19.796;2023-04-08T05:13:36;36.10;;;23.30;;
52934;SDS011;38802;50.198;19.796;2023-04-08T05:16:03;38.70;;;25.30;;
52934;SDS011;38802;50.198;19.796;2023-04-08T05:18:30;26.10;;;16.80;;
52934;SDS011;38802;50.198;19.796;2023-04-08T05:20:57;34.80;;;20.90;;
52934;SDS011;38802;50.198;19.796;2023-04-08T05:23:24;35.10;;;22.60;;
52934;SDS011;38802;50.198;19.796;2023-04-08T05:25:50;30.60;;;20.00;;
52934;SDS011;38802;50.198;19.796;2023-04-08T05:28:17;36.40;;;22.80;;
52934;SDS011;38802;50.198;19.796;2023-04-08T05:30:50;38.00;;;24.10;;
52934;SDS011;38802;50.198;19.796;2023-04-08T05:33:18;30.50;;;20.60;;
52934;SDS011;38802;50.198;19.796;2023-04-08T05:35:45;32.80;;;21.20;;
52934;SDS011;38802;50.198;19.796;2023-04-08T05:38:12;27.60;;;18.00;;
52934;SDS011;38802;50.198;19.796;2023-04-08T05:40:38;27.10;;;19.20;;
52934;SDS011;38802;50.198;19.796;2023-04-08T05:43:05;28.80;;;20.80;;
52934;SDS011;38802;50.198;19.796;2023-04-08T05:45:32;29.70;;;19.30;;
52934;SDS011;38802;50.198;19.796;2023-04-08T05:47:58;32.30;;;20.60;;
52934;SDS011;38802;50.198;19.796;2023-04-08T05:50:25;32.30;;;21.00;;
52934;SDS011;38802;50.198;19.796;2023-04-08T05:52:52;29.60;;;19.70;;
52934;SDS011;38802;50.198;19.796;2023-04-08T05:55:18;28.10;;;20.00;;
52934;SDS011;38802;50.198;19.796;2023-04-08T05:57:45;30.40;;;18.90;;
52934;SDS011;38802;50.198;19.796;2023-04-08T06:00:11;35.30;;;20.20;;
52934;SDS011;38802;50.198;19.796;2023-04-08T06:02:38;29.70;;;19.50;;
52934;SDS011;38802;50.198;19.796;2023-04-08T06:05:05;34.50;;;20.70;;
52934;SDS011;38802;50.198;19.796;2023-04-08T06:07:32;26.70;;;17.00;;
52934;SDS011;38802;50.198;19.796;2023-04-08T06:09:59;25.90;;;19.20;;
52934;SDS011;38802;50.198;19.796;2023-04-08T06:12:26;25.10;;;18.40;;
52934;SDS011;38802;50.198;19.796;2023-04-08T06:14:54;28.10;;;19.20;;
52934;SDS011;38802;50.198;19.796;2023-04-08T06:17:21;27.10;;;19.50;;
52934;SDS011;38802;50.198;19.796;2023-04-08T06:19:48;26.50;;;19.60;;
52934;SDS011;38802;50.198;19.796;2023-04-08T06:22:15;28.70;;;19.90;;
52934;SDS011;38802;50.198;19.796;2023-04-08T06:24:41;26.00;;;17.90;;
52934;SDS011;38802;50.198;19.796;2023-04-08T06:27:08;32.50;;;22.20;;
52934;SDS011;38802;50.198;19.796;2023-04-08T06:29:35;22.60;;;16.40;;
52934;SDS011;38802;50.198;19.796;2023-04-08T06:32:01;24.80;;;16.30;;
52934;SDS011;38802;50.198;19.796;2023-04-08T06:34:28;24.40;;;17.50;;
52934;SDS011;38802;50.198;19.796;2023-04-08T06:36:54;23.20;;;16.30;;
52934;SDS011;38802;50.198;19.796;2023-04-08T06:39:21;28.50;;;17.60;;
52934;SDS011;38802;50.198;19.796;2023-04-08T06:41:48;29.90;;;19.60;;
52934;SDS011;38802;50.198;19.796;2023-04-08T06:44:24;19.50;;;14.30;;
52934;SDS011;38802;50.198;19.796;2023-04-08T06:46:51;29.10;;;19.70;;
52934;SDS011;38802;50.198;19.796;2023-04-08T06:49:17;26.40;;;18.60;;
52934;SDS011;38802;50.198;19.796;2023-04-08T06:51:47;25.30;;;17.90;;
52934;SDS011;38802;50.198;19.796;2023-04-08T06:54:14;25.60;;;19.80;;
52934;SDS011;38802;50.198;19.796;2023-04-08T06:56:41;31.80;;;20.20;;
52934;SDS011;38802;50.198;19.796;2023-04-08T06:59:08;28.80;;;20.00;;
52934;SDS011;38802;50.198;19.796;2023-04-08T07:01:35;31.20;;;20.70;;
52934;SDS011;38802;50.198;19.796;2023-04-08T07:04:02;31.80;;;22.30;;
52934;SDS011;38802;50.198;19.796;2023-04-08T07:06:28;29.90;;;20.50;;
52934;SDS011;38802;50.198;19.796;2023-04-08T07:08:55;32.00;;;21.40;;
52934;SDS011;38802;50.198;19.796;2023-04-08T07:11:22;25.20;;;18.80;;
52934;SDS011;38802;50.198;19.796;2023-04-08T07:13:48;28.50;;;20.50;;
52934;SDS011;38802;50.198;19.796;2023-04-08T07:16:16;31.10;;;20.50;;
52934;SDS011;38802;50.198;19.796;2023-04-08T07:18:42;30.50;;;20.70;;
52934;SDS011;38802;50.198;19.796;2023-04-08T07:21:09;31.80;;;23.60;;
52934;SDS011;38802;50.198;19.796;2023-04-08T07:23:36;27.30;;;19.20;;
52934;SDS011;38802;50.198;19.796;2023-04-08T07:26:03;29.10;;;19.30;;
52934;SDS011;38802;50.198;19.796;2023-04-08T07:28:30;30.40;;;20.70;;
52934;SDS011;38802;50.198;19.796;2023-04-08T07:31:10;27.30;;;19.50;;
52934;SDS011;38802;50.198;19.796;2023-04-08T07:33:41;29.10;;;19.90;;
52934;SDS011;38802;50.198;19.796;2023-04-08T07:36:09;24.90;;;20.10;;
52934;SDS011;38802;50.198;19.796;2023-04-08T07:38:37;25.30;;;19.10;;
52934;SDS011;38802;50.198;19.796;2023-04-08T07:41:04;28.70;;;21.20;;
52934;SDS011;38802;50.198;19.796;2023-04-08T07:43:31;29.10;;;20.00;;
52934;SDS011;38802;50.198;19.796;2023-04-08T07:46:00;25.00;;;19.00;;
52934;SDS011;38802;50.198;19.796;2023-04-08T07:48:30;22.90;;;17.00;;
52934;SDS011;38802;50.198;19.796;2023-04-08T07:51:01;22.90;;;16.30;;
52934;SDS011;38802;50.198;19.796;2023-04-08T07:53:37;28.00;;;19.60;;
52934;SDS011;38802;50.198;19.796;2023-04-08T07:56:14;30.80;;;19.60;;
52934;SDS011;38802;50.198;19.796;2023-04-08T08:03:43;25.80;;;19.10;;
52934;SDS011;38802;50.198;19.796;2023-04-08T08:06:10;30.00;;;20.10;;
52934;SDS011;38802;50.198;19.796;2023-04-08T08:08:37;30.40;;;19.90;;
52934;SDS011;38802;50.198;19.796;2023-04-08T08:11:03;30.40;;;20.00;;
52934;SDS011;38802;50.198;19.796;2023-04-08T08:13:30;26.70;;;19.90;;
52934;SDS011;38802;50.198;19.796;2023-04-08T08:15:58;25.80;;;19.70;;
52934;SDS011;38802;50.198;19.796;2023-04-08T08:18:25;27.40;;;19.50;;
52934;SDS011;38802;50.198;19.796;2023-04-08T08:20:52;30.60;;;20.60;;
52934;SDS011;38802;50.198;19.796;2023-04-08T08:23:18;25.30;;;18.40;;
52934;SDS011;38802;50.198;19.796;2023-04-08T08:25:45;29.10;;;18.80;;
52934;SDS011;38802;50.198;19.796;2023-04-08T08:28:11;28.50;;;20.50;;
52934;SDS011;38802;50.198;19.796;2023-04-08T08:30:38;24.00;;;18.20;;
52934;SDS011;38802;50.198;19.796;2023-04-08T08:33:05;25.00;;;18.50;;
52934;SDS011;38802;50.198;19.796;2023-04-08T08:35:32;27.90;;;18.10;;
52934;SDS011;38802;50.198;19.796;2023-04-08T08:37:58;25.50;;;19.50;;
52934;SDS011;38802;50.198;19.796;2023-04-08T08:40:25;28.90;;;20.00;;
52934;SDS011;38802;50.198;19.796;2023-04-08T08:42:51;34.40;;;22.60;;
52934;SDS011;38802;50.198;19.796;2023-04-08T08:45:18;37.70;;;23.60;;
52934;SDS011;38802;50.198;19.796;2023-04-08T08:47:45;32.00;;;21.90;;
52934;SDS011;38802;50.198;19.796;2023-04-08T08:50:15;32.80;;;21.90;;
52934;SDS011;38802;50.198;19.796;2023-04-08T08:52:49;29.40;;;20.50;;
52934;SDS011;38802;50.198;19.796;2023-04-08T08:55:17;25.80;;;18.30;;
52934;SDS011;38802;50.198;19.796;2023-04-08T08:58:05;27.40;;;19.50;;
52934;SDS011;38802;50.198;19.796;2023-04-08T09:00:36;28.70;;;21.20;;
52934;SDS011;38802;50.198;19.796;2023-04-08T09:03:17;27.70;;;19.50;;
52934;SDS011;38802;50.198;19.796;2023-04-08T09:05:47;28.00;;;19.70;;
52934;SDS011;38802;50.198;19.796;2023-04-08T09:10:55;31.10;;;21.90;;
52934;SDS011;38802;50.198;19.796;2023-04-08T09:13:37;32.20;;;22.00;;
52934;SDS011;38802;50.198;19.796;2023-04-08T09:16:05;35.80;;;23.40;;
52934;SDS011;38802;50.198;19.796;2023-04-08T09:18:35;33.70;;;23.80;;
52934;SDS011;38802;50.198;19.796;2023-04-08T09:21:03;35.60;;;22.90;;
52934;SDS011;38802;50.198;19.796;2023-04-08T09:23:38;38.20;;;24.50;;
52934;SDS011;38802;50.198;19.796;2023-04-08T09:26:10;38.80;;;25.20;;
52934;SDS011;38802;50.198;19.796;2023-04-08T09:28:56;38.00;;;24.40;;
52934;SDS011;38802;50.198;19.796;2023-04-08T09:31:55;37.10;;;24.00;;
52934;SDS011;38802;50.198;19.796;2023-04-08T09:34:23;35.20;;;25.10;;
52934;SDS011;38802;50.198;19.796;2023-04-08T09:36:51;38.60;;;24.00;;
52934;SDS011;38802;50.198;19.796;2023-04-08T09:39:19;39.40;;;26.30;;
52934;SDS011;38802;50.198;19.796;2023-04-08T09:41:47;35.20;;;23.30;;
52934;SDS011;38802;50.198;19.796;2023-04-08T09:44:16;35.20;;;24.70;;
52934;SDS011;38802;50.198;19.796;2023-04-08T09:51:53;32.10;;;21.70;;
52934;SDS011;38802;50.198;19.796;2023-04-08T09:57:12;29.00;;;21.10;;
52934;SDS011;38802;50.198;19.796;2023-04-08T09:59:44;29.30;;;21.10;;
52934;SDS011;38802;50.198;19.796;2023-04-08T10:02:18;30.20;;;20.90;;
52934;SDS011;38802;50.198;19.796;2023-04-08T10:04:53;23.30;;;19.10;;
52934;SDS011;38802;50.198;19.796;2023-04-08T10:07:23;24.90;;;18.30;;
52934;SDS011;38802;50.198;19.796;2023-04-08T10:09:50;26.50;;;20.70;;
52934;SDS011;38802;50.198;19.796;2023-04-08T10:12:17;27.20;;;21.10;;
52934;SDS011;38802;50.198;19.796;2023-04-08T10:17:53;31.00;;;21.00;;
52934;SDS011;38802;50.198;19.796;2023-04-08T10:20:54;29.60;;;21.50;;
52934;SDS011;38802;50.198;19.796;2023-04-08T10:23:15;29.50;;;19.80;;
52934;SDS011;38802;50.198;19.796;2023-04-08T10:25:47;25.30;;;19.70;;
52934;SDS011;38802;50.198;19.796;2023-04-08T10:33:21;28.90;;;20.00;;
52934;SDS011;38802;50.198;19.796;2023-04-08T10:35:51;25.10;;;19.10;;
52934;SDS011;38802;50.198;19.796;2023-04-08T10:38:19;40.30;;;23.40;;
52934;SDS011;38802;50.198;19.796;2023-04-08T10:40:47;28.60;;;20.00;;
52934;SDS011;38802;50.198;19.796;2023-04-08T10:43:15;32.80;;;22.40;;
52934;SDS011;38802;50.198;19.796;2023-04-08T10:45:43;34.60;;;22.50;;
52934;SDS011;38802;50.198;19.796;2023-04-08T10:48:21;25.70;;;19.00;;
52934;SDS011;38802;50.198;19.796;2023-04-08T10:50:54;26.70;;;19.60;;
52934;SDS011;38802;50.198;19.796;2023-04-08T10:53:24;27.30;;;21.10;;
52934;SDS011;38802;50.198;19.796;2023-04-08T10:55:54;29.60;;;19.50;;
52934;SDS011;38802;50.198;19.796;2023-04-08T10:58:28;30.70;;;20.80;;
52934;SDS011;38802;50.198;19.796;2023-04-08T11:00:55;27.00;;;20.00;;
52934;SDS011;38802;50.198;19.796;2023-04-08T11:03:30;27.50;;;20.10;;
52934;SDS011;38802;50.198;19.796;2023-04-08T11:06:00;25.80;;;17.70;;
52934;SDS011;38802;50.198;19.796;2023-04-08T11:08:28;23.60;;;18.80;;
52934;SDS011;38802;50.198;19.796;2023-04-08T11:10:55;28.10;;;20.30;;
52934;SDS011;38802;50.198;19.796;2023-04-08T11:13:22;26.70;;;21.10;;
52934;SDS011;38802;50.198;19.796;2023-04-08T11:15:49;27.60;;;19.00;;
52934;SDS011;38802;50.198;19.796;2023-04-08T11:18:17;25.70;;;19.70;;
52934;SDS011;38802;50.198;19.796;2023-04-08T11:20:44;22.00;;;17.30;;
52934;SDS011;38802;50.198;19.796;2023-04-08T11:23:11;31.80;;;20.90;;
52934;SDS011;38802;50.198;19.796;2023-04-08T11:25:40;32.50;;;19.60;;
52934;SDS011;38802;50.198;19.796;2023-04-08T11:28:08;27.10;;;20.00;;
52934;SDS011;38802;50.198;19.796;2023-04-08T11:30:54;25.70;;;20.60;;
52934;SDS011;38802;50.198;19.796;2023-04-08T11:33:25;30.60;;;20.70;;
52934;SDS011;38802;50.198;19.796;2023-04-08T11:35:56;27.10;;;19.80;;
52934;SDS011;38802;50.198;19.796;2023-04-08T11:38:24;30.50;;;22.40;;
52934;SDS011;38802;50.198;19.796;2023-04-08T11:40:52;33.60;;;22.20;;
52934;SDS011;38802;50.198;19.796;2023-04-08T11:43:22;38.30;;;25.90;;
52934;SDS011;38802;50.198;19.796;2023-04-08T11:45:50;34.50;;;23.50;;
52934;SDS011;38802;50.198;19.796;2023-04-08T11:48:18;33.40;;;22.70;;
52934;SDS011;38802;50.198;19.796;2023-04-08T11:50:46;37.00;;;24.20;;
52934;SDS011;38802;50.198;19.796;2023-04-08T11:53:18;40.50;;;24.30;;
52934;SDS011;38802;50.198;19.796;2023-04-08T11:55:48;29.40;;;20.40;;
52934;SDS011;38802;50.198;19.796;2023-04-08T11:58:16;28.60;;;21.30;;
52934;SDS011;38802;50.198;19.796;2023-04-08T12:00:44;33.70;;;20.70;;
52934;SDS011;38802;50.198;19.796;2023-04-08T12:03:12;34.20;;;22.10;;
52934;SDS011;38802;50.198;19.796;2023-04-08T12:05:40;32.00;;;21.90;;
52934;SDS011;38802;50.198;19.796;2023-04-08T12:08:09;29.00;;;21.50;;
52934;SDS011;38802;50.198;19.796;2023-04-08T12:10:37;30.10;;;21.30;;
52934;SDS011;38802;50.198;19.796;2023-04-08T12:13:05;29.60;;;20.70;;
52934;SDS011;38802;50.198;19.796;2023-04-08T12:15:33;28.40;;;21.20;;
52934;SDS011;38802;50.198;19.796;2023-04-08T12:18:01;28.00;;;19.60;;
52934;SDS011;38802;50.198;19.796;2023-04-08T12:20:29;27.50;;;20.50;;
52934;SDS011;38802;50.198;19.796;2023-04-08T12:22:57;29.10;;;22.00;;
52934;SDS011;38802;50.198;19.796;2023-04-08T12:25:26;33.40;;;20.40;;
52934;SDS011;38802;50.198;19.796;2023-04-08T12:27:54;26.50;;;19.90;;
52934;SDS011;38802;50.198;19.796;2023-04-08T12:30:22;29.00;;;22.00;;
52934;SDS011;38802;50.198;19.796;2023-04-08T12:32:50;29.40;;;21.20;;
52934;SDS011;38802;50.198;19.796;2023-04-08T12:35:20;28.30;;;20.00;;
52934;SDS011;38802;50.198;19.796;2023-04-08T12:37:48;33.60;;;22.10;;
52934;SDS011;38802;50.198;19.796;2023-04-08T12:40:17;33.00;;;21.20;;
52934;SDS011;38802;50.198;19.796;2023-04-08T12:42:45;30.50;;;20.10;;
52934;SDS011;38802;50.198;19.796;2023-04-08T12:45:15;34.90;;;23.60;;
52934;SDS011;38802;50.198;19.796;2023-04-08T12:47:43;27.50;;;20.50;;
52934;SDS011;38802;50.198;19.796;2023-04-08T12:50:11;30.10;;;21.00;;
52934;SDS011;38802;50.198;19.796;2023-04-08T12:52:39;35.00;;;21.20;;
52934;SDS011;38802;50.198;19.796;2023-04-08T12:55:08;32.00;;;20.70;;
52934;SDS011;38802;50.198;19.796;2023-04-08T12:57:36;31.30;;;20.70;;
52934;SDS011;38802;50.198;19.796;2023-04-08T13:00:04;34.00;;;22.60;;
52934;SDS011;38802;50.198;19.796;2023-04-08T13:02:33;31.50;;;21.80;;
52934;SDS011;38802;50.198;19.796;2023-04-08T13:05:01;29.50;;;20.80;;
52934;SDS011;38802;50.198;19.796;2023-04-08T13:07:30;29.30;;;20.10;;
52934;SDS011;38802;50.198;19.796;2023-04-08T13:09:58;32.30;;;21.80;;
52934;SDS011;38802;50.198;19.796;2023-04-08T13:12:26;29.10;;;20.10;;
52934;SDS011;38802;50.198;19.796;2023-04-08T13:14:54;30.20;;;20.40;;
52934;SDS011;38802;50.198;19.796;2023-04-08T13:17:22;29.50;;;21.10;;
52934;SDS011;38802;50.198;19.796;2023-04-08T13:19:50;31.50;;;20.30;;
52934;SDS011;38802;50.198;19.796;2023-04-08T13:22:19;31.90;;;20.80;;
52934;SDS011;38802;50.198;19.796;2023-04-08T13:24:47;26.10;;;20.70;;
52934;SDS011;38802;50.198;19.796;2023-04-08T13:27:15;32.10;;;21.10;;
52934;SDS011;38802;50.198;19.796;2023-04-08T13:29:44;34.00;;;23.00;;
52934;SDS011;38802;50.198;19.796;2023-04-08T13:32:12;30.50;;;22.40;;
52934;SDS011;38802;50.198;19.796;2023-04-08T13:34:40;36.40;;;22.20;;
52934;SDS011;38802;50.198;19.796;2023-04-08T13:37:09;33.40;;;20.90;;
52934;SDS011;38802;50.198;19.796;2023-04-08T13:39:37;35.10;;;23.40;;
52934;SDS011;38802;50.198;19.796;2023-04-08T13:42:05;34.40;;;23.10;;
52934;SDS011;38802;50.198;19.796;2023-04-08T13:44:33;30.40;;;21.60;;
52934;SDS011;38802;50.198;19.796;2023-04-08T13:47:01;29.70;;;22.20;;
52934;SDS011;38802;50.198;19.796;2023-04-08T13:49:29;30.70;;;21.40;;
52934;SDS011;38802;50.198;19.796;2023-04-08T13:51:58;33.00;;;21.60;;
52934;SDS011;38802;50.198;19.796;2023-04-08T13:54:26;30.90;;;21.40;;
52934;SDS011;38802;50.198;19.796;2023-04-08T13:56:54;36.30;;;23.00;;
52934;SDS011;38802;50.198;19.796;2023-04-08T13:59:22;33.00;;;22.60;;
52934;SDS011;38802;50.198;19.796;2023-04-08T14:01:50;24.80;;;19.50;;
52934;SDS011;38802;50.198;19.796;2023-04-08T14:04:21;27.20;;;19.90;;
52934;SDS011;38802;50.198;19.796;2023-04-08T14:06:50;28.40;;;19.90;;
52934;SDS011;38802;50.198;19.796;2023-04-08T14:09:19;27.20;;;19.10;;
52934;SDS011;38802;50.198;19.796;2023-04-08T14:11:47;28.00;;;21.20;;
52934;SDS011;38802;50.198;19.796;2023-04-08T14:14:15;32.20;;;22.20;;
52934;SDS011;38802;50.198;19.796;2023-04-08T14:16:43;25.90;;;20.10;;
52934;SDS011;38802;50.198;19.796;2023-04-08T14:19:11;26.40;;;19.00;;
52934;SDS011;38802;50.198;19.796;2023-04-08T14:21:40;33.00;;;21.50;;
52934;SDS011;38802;50.198;19.796;2023-04-08T14:24:08;27.70;;;19.50;;
52934;SDS011;38802;50.198;19.796;2023-04-08T14:26:36;30.50;;;19.00;;
52934;SDS011;38802;50.198;19.796;2023-04-08T14:29:05;27.70;;;19.50;;
52934;SDS011;38802;50.198;19.796;2023-04-08T14:31:33;27.60;;;20.10;;
52934;SDS011;38802;50.198;19.796;2023-04-08T14:34:02;30.00;;;19.90;;
52934;SDS011;38802;50.198;19.796;2023-04-08T14:36:30;21.30;;;15.70;;
52934;SDS011;38802;50.198;19.796;2023-04-08T14:38:59;23.80;;;17.70;;
52934;SDS011;38802;50.198;19.796;2023-04-08T14:41:27;24.90;;;17.60;;
52934;SDS011;38802;50.198;19.796;2023-04-08T14:43:56;30.90;;;20.90;;
52934;SDS011;38802;50.198;19.796;2023-04-08T14:46:24;55.60;;;28.80;;
52934;SDS011;38802;50.198;19.796;2023-04-08T14:48:55;28.90;;;20.60;;
52934;SDS011;38802;50.198;19.796;2023-04-08T14:51:24;40.20;;;24.70;;
52934;SDS011;38802;50.198;19.796;2023-04-08T14:53:52;43.50;;;25.30;;